sensor_id;sensor_type;location;lat;lon;timestamp;P1;durP1;ratioP1;P2;durP2;ratioP2
56161;SDS011;42045;52.986;6.014;2022-08-11T00:03:47;15.68;;;14.13;;
56161;SDS011;42045;52.986;6.014;2022-08-11T00:06:26;15.20;;;13.63;;
56161;SDS011;42045;52.986;6.014;2022-08-11T00:08:57;16.30;;;14.48;;
56161;SDS011;42045;52.986;6.014;2022-08-11T00:11:34;19.02;;;14.70;;
56161;SDS011;42045;52.986;6.014;2022-08-11T00:14:00;15.25;;;13.70;;
56161;SDS011;42045;52.986;6.014;2022-08-11T00:16:28;18.08;;;14.80;;
56161;SDS011;42045;52.986;6.014;2022-08-11T00:18:56;15.18;;;13.20;;
56161;SDS011;42045;52.986;6.014;2022-08-11T00:21:24;16.10;;;14.40;;
56161;SDS011;42045;52.986;6.014;2022-08-11T00:23:53;14.95;;;13.35;;
56161;SDS011;42045;52.986;6.014;2022-08-11T00:26:22;15.95;;;14.35;;
56161;SDS011;42045;52.986;6.014;2022-08-11T00:28:49;17.10;;;13.85;;
56161;SDS011;42045;52.986;6.014;2022-08-11T00:31:27;15.02;;;13.13;;
56161;SDS011;42045;52.986;6.014;2022-08-11T00:33:55;14.50;;;12.98;;
56161;SDS011;42045;52.986;6.014;2022-08-11T00:36:36;15.10;;;12.93;;
56161;SDS011;42045;52.986;6.014;2022-08-11T00:39:15;14.90;;;13.05;;
56161;SDS011;42045;52.986;6.014;2022-08-11T00:50:40;20.88;;;15.55;;
56161;SDS011;42045;52.986;6.014;2022-08-11T01:02:17;20.95;;;18.40;;
56161;SDS011;42045;52.986;6.014;2022-08-11T01:19:57;21.45;;;18.08;;
56161;SDS011;42045;52.986;6.014;2022-08-11T01:31:35;23.08;;;17.67;;
56161;SDS011;42045;52.986;6.014;2022-08-11T01:40:29;18.98;;;15.50;;
56161;SDS011;42045;52.986;6.014;2022-08-11T02:00:06;15.07;;;13.50;;
56161;SDS011;42045;52.986;6.014;2022-08-11T02:02:52;15.10;;;13.18;;
56161;SDS011;42045;52.986;6.014;2022-08-11T02:10:42;15.40;;;13.25;;
56161;SDS011;42045;52.986;6.014;2022-08-11T02:18:40;15.27;;;12.52;;
56161;SDS011;42045;52.986;6.014;2022-08-11T02:24:34;13.15;;;11.90;;
56161;SDS011;42045;52.986;6.014;2022-08-11T02:27:22;13.65;;;12.25;;
56161;SDS011;42045;52.986;6.014;2022-08-11T02:30:07;14.50;;;13.18;;
56161;SDS011;42045;52.986;6.014;2022-08-11T02:32:50;13.02;;;11.73;;
56161;SDS011;42045;52.986;6.014;2022-08-11T02:38:32;15.45;;;13.50;;
56161;SDS011;42045;52.986;6.014;2022-08-11T02:58:09;14.30;;;12.55;;
56161;SDS011;42045;52.986;6.014;2022-08-11T03:00:56;15.15;;;13.55;;
56161;SDS011;42045;52.986;6.014;2022-08-11T03:03:52;15.15;;;13.63;;
56161;SDS011;42045;52.986;6.014;2022-08-11T03:12:08;15.40;;;13.88;;
56161;SDS011;42045;52.986;6.014;2022-08-11T03:15:06;15.77;;;14.13;;
56161;SDS011;42045;52.986;6.014;2022-08-11T03:21:38;16.08;;;13.50;;
56161;SDS011;42045;52.986;6.014;2022-08-11T03:24:00;16.35;;;14.32;;
56161;SDS011;42045;52.986;6.014;2022-08-11T03:26:30;15.65;;;14.20;;
56161;SDS011;42045;52.986;6.014;2022-08-11T03:32:00;15.13;;;13.63;;
56161;SDS011;42045;52.986;6.014;2022-08-11T03:34:50;16.17;;;14.35;;
56161;SDS011;42045;52.986;6.014;2022-08-11T03:37:40;16.73;;;15.05;;
56161;SDS011;42045;52.986;6.014;2022-08-11T03:46:13;16.25;;;14.65;;
56161;SDS011;42045;52.986;6.014;2022-08-11T03:48:58;17.45;;;15.35;;
56161;SDS011;42045;52.986;6.014;2022-08-11T03:51:55;16.33;;;14.63;;
56161;SDS011;42045;52.986;6.014;2022-08-11T03:54:41;17.60;;;15.80;;
56161;SDS011;42045;52.986;6.014;2022-08-11T04:03:22;16.90;;;15.30;;
56161;SDS011;42045;52.986;6.014;2022-08-11T04:11:44;19.45;;;17.55;;
56161;SDS011;42045;52.986;6.014;2022-08-11T04:20:36;19.10;;;16.90;;
56161;SDS011;42045;52.986;6.014;2022-08-11T04:32:03;18.75;;;16.75;;
56161;SDS011;42045;52.986;6.014;2022-08-11T05:16:12;14.52;;;13.23;;
56161;SDS011;42045;52.986;6.014;2022-08-11T05:19:04;16.05;;;14.20;;
56161;SDS011;42045;52.986;6.014;2022-08-11T05:21:56;14.88;;;13.48;;
56161;SDS011;42045;52.986;6.014;2022-08-11T05:24:50;14.18;;;12.85;;
56161;SDS011;42045;52.986;6.014;2022-08-11T05:27:49;14.48;;;13.00;;
56161;SDS011;42045;52.986;6.014;2022-08-11T05:30:41;14.60;;;13.15;;
56161;SDS011;42045;52.986;6.014;2022-08-11T05:33:41;14.18;;;12.82;;
56161;SDS011;42045;52.986;6.014;2022-08-11T05:37:06;12.95;;;11.75;;
56161;SDS011;42045;52.986;6.014;2022-08-11T05:39:56;14.15;;;12.90;;
56161;SDS011;42045;52.986;6.014;2022-08-11T05:42:49;14.05;;;12.65;;
56161;SDS011;42045;52.986;6.014;2022-08-11T05:45:40;13.98;;;12.00;;
56161;SDS011;42045;52.986;6.014;2022-08-11T05:48:29;12.60;;;11.43;;
56161;SDS011;42045;52.986;6.014;2022-08-11T05:51:17;12.38;;;11.35;;
56161;SDS011;42045;52.986;6.014;2022-08-11T05:54:03;13.07;;;12.00;;
56161;SDS011;42045;52.986;6.014;2022-08-11T05:56:53;13.82;;;12.52;;
56161;SDS011;42045;52.986;6.014;2022-08-11T05:59:28;13.65;;;12.40;;
56161;SDS011;42045;52.986;6.014;2022-08-11T06:02:01;13.05;;;11.77;;
56161;SDS011;42045;52.986;6.014;2022-08-11T06:04:28;12.48;;;11.20;;
56161;SDS011;42045;52.986;6.014;2022-08-11T06:07:02;11.98;;;10.98;;
56161;SDS011;42045;52.986;6.014;2022-08-11T06:09:33;12.80;;;11.70;;
56161;SDS011;42045;52.986;6.014;2022-08-11T06:12:16;12.25;;;11.15;;
56161;SDS011;42045;52.986;6.014;2022-08-11T06:14:57;11.55;;;10.35;;
56161;SDS011;42045;52.986;6.014;2022-08-11T06:17:29;11.98;;;11.02;;
56161;SDS011;42045;52.986;6.014;2022-08-11T06:20:00;12.10;;;11.10;;
56161;SDS011;42045;52.986;6.014;2022-08-11T06:22:37;11.77;;;10.77;;
56161;SDS011;42045;52.986;6.014;2022-08-11T06:25:05;10.60;;;9.73;;
56161;SDS011;42045;52.986;6.014;2022-08-11T06:27:34;11.35;;;10.35;;
56161;SDS011;42045;52.986;6.014;2022-08-11T06:30:04;11.80;;;10.70;;
56161;SDS011;42045;52.986;6.014;2022-08-11T06:32:41;10.85;;;9.88;;
56161;SDS011;42045;52.986;6.014;2022-08-11T06:40:42;11.20;;;10.18;;
56161;SDS011;42045;52.986;6.014;2022-08-11T06:43:48;10.45;;;9.57;;
56161;SDS011;42045;52.986;6.014;2022-08-11T06:48:55;10.20;;;9.30;;
56161;SDS011;42045;52.986;6.014;2022-08-11T06:51:25;9.10;;;8.32;;
56161;SDS011;42045;52.986;6.014;2022-08-11T06:53:53;9.80;;;8.90;;
56161;SDS011;42045;52.986;6.014;2022-08-11T06:56:29;10.50;;;9.50;;
56161;SDS011;42045;52.986;6.014;2022-08-11T06:59:19;10.20;;;9.30;;
56161;SDS011;42045;52.986;6.014;2022-08-11T07:02:23;9.32;;;8.52;;
56161;SDS011;42045;52.986;6.014;2022-08-11T07:07:44;9.45;;;8.45;;
56161;SDS011;42045;52.986;6.014;2022-08-11T07:14:35;8.90;;;8.00;;
56161;SDS011;42045;52.986;6.014;2022-08-11T07:17:25;21.13;;;8.50;;
56161;SDS011;42045;52.986;6.014;2022-08-11T07:19:56;9.48;;;8.65;;
56161;SDS011;42045;52.986;6.014;2022-08-11T07:22:45;9.35;;;8.40;;
56161;SDS011;42045;52.986;6.014;2022-08-11T07:25:38;8.52;;;7.72;;
56161;SDS011;42045;52.986;6.014;2022-08-11T07:28:27;9.20;;;8.30;;
56161;SDS011;42045;52.986;6.014;2022-08-11T07:31:36;8.13;;;7.32;;
56161;SDS011;42045;52.986;6.014;2022-08-11T07:36:57;9.15;;;8.13;;
56161;SDS011;42045;52.986;6.014;2022-08-11T07:39:28;8.05;;;7.35;;
56161;SDS011;42045;52.986;6.014;2022-08-11T07:41:57;7.90;;;7.20;;
56161;SDS011;42045;52.986;6.014;2022-08-11T07:44:29;9.05;;;8.13;;
56161;SDS011;42045;52.986;6.014;2022-08-11T07:46:56;11.02;;;8.13;;
56161;SDS011;42045;52.986;6.014;2022-08-11T07:49:43;8.88;;;7.55;;
56161;SDS011;42045;52.986;6.014;2022-08-11T07:52:30;11.00;;;7.75;;
56161;SDS011;42045;52.986;6.014;2022-08-11T07:57:46;6.95;;;6.22;;
56161;SDS011;42045;52.986;6.014;2022-08-11T08:00:39;7.53;;;6.63;;
56161;SDS011;42045;52.986;6.014;2022-08-11T08:03:28;11.25;;;6.47;;
56161;SDS011;42045;52.986;6.014;2022-08-11T08:06:13;7.72;;;6.50;;
56161;SDS011;42045;52.986;6.014;2022-08-11T08:09:00;7.30;;;5.93;;
56161;SDS011;42045;52.986;6.014;2022-08-11T08:11:46;8.93;;;6.05;;
56161;SDS011;42045;52.986;6.014;2022-08-11T08:14:32;6.90;;;5.88;;
56161;SDS011;42045;52.986;6.014;2022-08-11T08:17:19;6.35;;;5.72;;
56161;SDS011;42045;52.986;6.014;2022-08-11T08:20:06;8.25;;;5.70;;
56161;SDS011;42045;52.986;6.014;2022-08-11T08:22:35;8.90;;;5.00;;
56161;SDS011;42045;52.986;6.014;2022-08-11T08:25:03;6.25;;;4.88;;
56161;SDS011;42045;52.986;6.014;2022-08-11T08:27:30;5.00;;;4.50;;
56161;SDS011;42045;52.986;6.014;2022-08-11T08:29:57;8.65;;;4.78;;
56161;SDS011;42045;52.986;6.014;2022-08-11T08:32:43;5.53;;;4.90;;
56161;SDS011;42045;52.986;6.014;2022-08-11T08:35:10;5.72;;;4.18;;
56161;SDS011;42045;52.986;6.014;2022-08-11T08:37:36;8.60;;;5.10;;
56161;SDS011;42045;52.986;6.014;2022-08-11T08:40:05;7.75;;;4.22;;
56161;SDS011;42045;52.986;6.014;2022-08-11T08:42:34;6.88;;;4.18;;
56161;SDS011;42045;52.986;6.014;2022-08-11T08:45:09;6.85;;;4.75;;
56161;SDS011;42045;52.986;6.014;2022-08-11T08:47:37;5.18;;;4.22;;
56161;SDS011;42045;52.986;6.014;2022-08-11T08:50:15;8.55;;;3.97;;
56161;SDS011;42045;52.986;6.014;2022-08-11T08:52:51;5.32;;;4.07;;
56161;SDS011;42045;52.986;6.014;2022-08-11T08:55:29;4.80;;;4.03;;
56161;SDS011;42045;52.986;6.014;2022-08-11T08:57:55;5.93;;;3.63;;
56161;SDS011;42045;52.986;6.014;2022-08-11T09:00:29;4.78;;;3.30;;
56161;SDS011;42045;52.986;6.014;2022-08-11T09:03:07;4.70;;;3.60;;
56161;SDS011;42045;52.986;6.014;2022-08-11T09:05:35;4.90;;;3.40;;
56161;SDS011;42045;52.986;6.014;2022-08-11T09:08:02;6.03;;;3.05;;
56161;SDS011;42045;52.986;6.014;2022-08-11T09:10:28;5.68;;;2.83;;
56161;SDS011;42045;52.986;6.014;2022-08-11T09:12:56;5.25;;;3.13;;
56161;SDS011;42045;52.986;6.014;2022-08-11T09:15:23;7.05;;;2.92;;
56161;SDS011;42045;52.986;6.014;2022-08-11T09:17:54;3.30;;;2.28;;
56161;SDS011;42045;52.986;6.014;2022-08-11T09:20:31;4.40;;;2.97;;
56161;SDS011;42045;52.986;6.014;2022-08-11T09:23:02;5.03;;;2.95;;
56161;SDS011;42045;52.986;6.014;2022-08-11T09:25:55;4.53;;;3.10;;
56161;SDS011;42045;52.986;6.014;2022-08-11T09:28:51;6.15;;;2.88;;
56161;SDS011;42045;52.986;6.014;2022-08-11T09:31:18;5.05;;;2.58;;
56161;SDS011;42045;52.986;6.014;2022-08-11T09:33:46;6.00;;;3.10;;
56161;SDS011;42045;52.986;6.014;2022-08-11T09:36:15;4.10;;;2.70;;
56161;SDS011;42045;52.986;6.014;2022-08-11T09:39:03;7.47;;;3.20;;
56161;SDS011;42045;52.986;6.014;2022-08-11T09:41:48;6.10;;;2.70;;
56161;SDS011;42045;52.986;6.014;2022-08-11T09:44:15;4.90;;;2.90;;
56161;SDS011;42045;52.986;6.014;2022-08-11T09:47:00;4.45;;;2.65;;
56161;SDS011;42045;52.986;6.014;2022-08-11T09:49:29;5.63;;;2.58;;
56161;SDS011;42045;52.986;6.014;2022-08-11T09:51:57;5.97;;;2.70;;
56161;SDS011;42045;52.986;6.014;2022-08-11T09:54:25;3.42;;;2.55;;
56161;SDS011;42045;52.986;6.014;2022-08-11T09:56:52;5.97;;;2.67;;
56161;SDS011;42045;52.986;6.014;2022-08-11T09:59:37;4.65;;;2.25;;
56161;SDS011;42045;52.986;6.014;2022-08-11T10:02:05;3.85;;;2.92;;
56161;SDS011;42045;52.986;6.014;2022-08-11T10:04:46;4.40;;;2.55;;
56161;SDS011;42045;52.986;6.014;2022-08-11T10:07:17;14.02;;;4.25;;
56161;SDS011;42045;52.986;6.014;2022-08-11T10:09:51;7.53;;;2.90;;
56161;SDS011;42045;52.986;6.014;2022-08-11T10:12:33;5.18;;;2.55;;
56161;SDS011;42045;52.986;6.014;2022-08-11T10:15:03;6.78;;;2.53;;
56161;SDS011;42045;52.986;6.014;2022-08-11T10:17:59;4.28;;;2.75;;
56161;SDS011;42045;52.986;6.014;2022-08-11T10:24:07;3.47;;;2.45;;
56161;SDS011;42045;52.986;6.014;2022-08-11T10:26:54;4.00;;;2.72;;
56161;SDS011;42045;52.986;6.014;2022-08-11T10:29:26;4.43;;;2.67;;
56161;SDS011;42045;52.986;6.014;2022-08-11T10:32:24;4.18;;;2.58;;
56161;SDS011;42045;52.986;6.014;2022-08-11T10:35:15;4.47;;;2.42;;
56161;SDS011;42045;52.986;6.014;2022-08-11T10:37:43;3.58;;;2.33;;
56161;SDS011;42045;52.986;6.014;2022-08-11T10:40:14;4.50;;;2.30;;
56161;SDS011;42045;52.986;6.014;2022-08-11T10:42:42;7.88;;;2.50;;
56161;SDS011;42045;52.986;6.014;2022-08-11T10:45:31;6.32;;;2.90;;
56161;SDS011;42045;52.986;6.014;2022-08-11T10:48:18;3.50;;;2.40;;
56161;SDS011;42045;52.986;6.014;2022-08-11T10:50:48;5.63;;;2.65;;
56161;SDS011;42045;52.986;6.014;2022-08-11T10:53:35;3.97;;;2.22;;
56161;SDS011;42045;52.986;6.014;2022-08-11T10:56:21;7.68;;;2.35;;
56161;SDS011;42045;52.986;6.014;2022-08-11T10:59:07;3.47;;;2.50;;
56161;SDS011;42045;52.986;6.014;2022-08-11T11:01:39;3.50;;;2.60;;
56161;SDS011;42045;52.986;6.014;2022-08-11T11:04:17;3.53;;;2.13;;
56161;SDS011;42045;52.986;6.014;2022-08-11T11:07:07;5.65;;;2.60;;
56161;SDS011;42045;52.986;6.014;2022-08-11T11:09:48;4.50;;;2.85;;
56161;SDS011;42045;52.986;6.014;2022-08-11T11:15:36;3.25;;;2.28;;
56161;SDS011;42045;52.986;6.014;2022-08-11T11:18:28;5.15;;;2.22;;
56161;SDS011;42045;52.986;6.014;2022-08-11T11:21:14;4.70;;;2.60;;
56161;SDS011;42045;52.986;6.014;2022-08-11T11:26:41;7.10;;;3.15;;
56161;SDS011;42045;52.986;6.014;2022-08-11T11:29:19;3.45;;;2.80;;
56161;SDS011;42045;52.986;6.014;2022-08-11T11:37:39;3.63;;;2.10;;
56161;SDS011;42045;52.986;6.014;2022-08-11T11:40:12;4.28;;;2.47;;
56161;SDS011;42045;52.986;6.014;2022-08-11T11:43:01;3.85;;;2.20;;
56161;SDS011;42045;52.986;6.014;2022-08-11T11:45:36;3.58;;;2.33;;
56161;SDS011;42045;52.986;6.014;2022-08-11T11:48:05;3.72;;;2.25;;
56161;SDS011;42045;52.986;6.014;2022-08-11T11:50:35;6.75;;;2.65;;
56161;SDS011;42045;52.986;6.014;2022-08-11T11:53:06;4.63;;;2.63;;
56161;SDS011;42045;52.986;6.014;2022-08-11T11:55:34;2.35;;;1.80;;
56161;SDS011;42045;52.986;6.014;2022-08-11T11:58:02;4.03;;;2.33;;
56161;SDS011;42045;52.986;6.014;2022-08-11T12:00:50;3.10;;;2.53;;
56161;SDS011;42045;52.986;6.014;2022-08-11T12:03:36;6.32;;;2.40;;
56161;SDS011;42045;52.986;6.014;2022-08-11T12:06:03;6.95;;;2.75;;
56161;SDS011;42045;52.986;6.014;2022-08-11T12:08:31;2.97;;;2.10;;
56161;SDS011;42045;52.986;6.014;2022-08-11T12:10:58;6.70;;;2.78;;
56161;SDS011;42045;52.986;6.014;2022-08-11T12:13:46;7.00;;;2.47;;
56161;SDS011;42045;52.986;6.014;2022-08-11T12:16:15;3.90;;;2.22;;
56161;SDS011;42045;52.986;6.014;2022-08-11T12:18:44;4.93;;;2.25;;
56161;SDS011;42045;52.986;6.014;2022-08-11T12:21:13;4.85;;;2.45;;
56161;SDS011;42045;52.986;6.014;2022-08-11T12:23:41;2.85;;;2.25;;
56161;SDS011;42045;52.986;6.014;2022-08-11T12:26:31;5.68;;;2.80;;
56161;SDS011;42045;52.986;6.014;2022-08-11T12:29:17;4.22;;;2.15;;
56161;SDS011;42045;52.986;6.014;2022-08-11T12:31:45;12.10;;;2.42;;
56161;SDS011;42045;52.986;6.014;2022-08-11T12:34:13;3.85;;;2.40;;
56161;SDS011;42045;52.986;6.014;2022-08-11T12:37:00;3.83;;;2.42;;
56161;SDS011;42045;52.986;6.014;2022-08-11T12:39:41;5.97;;;2.35;;
56161;SDS011;42045;52.986;6.014;2022-08-11T12:42:32;4.13;;;2.40;;
56161;SDS011;42045;52.986;6.014;2022-08-11T12:45:25;4.43;;;2.50;;
56161;SDS011;42045;52.986;6.014;2022-08-11T12:50:57;2.65;;;2.00;;
56161;SDS011;42045;52.986;6.014;2022-08-11T12:54:09;5.68;;;2.10;;
56161;SDS011;42045;52.986;6.014;2022-08-11T12:56:38;6.40;;;1.80;;
56161;SDS011;42045;52.986;6.014;2022-08-11T12:59:27;2.67;;;2.08;;
56161;SDS011;42045;52.986;6.014;2022-08-11T13:02:17;3.20;;;1.95;;
56161;SDS011;42045;52.986;6.014;2022-08-11T13:05:05;3.25;;;2.08;;
56161;SDS011;42045;52.986;6.014;2022-08-11T13:07:32;6.82;;;1.77;;
56161;SDS011;42045;52.986;6.014;2022-08-11T13:10:00;2.30;;;2.10;;
56161;SDS011;42045;52.986;6.014;2022-08-11T13:12:30;2.75;;;2.00;;
56161;SDS011;42045;52.986;6.014;2022-08-11T13:15:13;4.07;;;2.65;;
56161;SDS011;42045;52.986;6.014;2022-08-11T13:17:49;2.67;;;2.30;;
56161;SDS011;42045;52.986;6.014;2022-08-11T13:20:23;3.47;;;1.88;;
56161;SDS011;42045;52.986;6.014;2022-08-11T13:22:51;4.03;;;2.55;;
56161;SDS011;42045;52.986;6.014;2022-08-11T13:25:20;5.93;;;2.50;;
56161;SDS011;42045;52.986;6.014;2022-08-11T13:27:58;2.75;;;2.22;;
56161;SDS011;42045;52.986;6.014;2022-08-11T13:30:27;3.80;;;2.10;;
56161;SDS011;42045;52.986;6.014;2022-08-11T13:33:13;2.60;;;2.30;;
56161;SDS011;42045;52.986;6.014;2022-08-11T13:35:42;4.63;;;2.67;;
56161;SDS011;42045;52.986;6.014;2022-08-11T13:38:16;2.92;;;2.00;;
56161;SDS011;42045;52.986;6.014;2022-08-11T13:40:45;4.65;;;2.33;;
56161;SDS011;42045;52.986;6.014;2022-08-11T13:43:14;3.35;;;1.98;;
56161;SDS011;42045;52.986;6.014;2022-08-11T13:45:43;4.10;;;1.90;;
56161;SDS011;42045;52.986;6.014;2022-08-11T13:48:12;4.88;;;2.10;;
56161;SDS011;42045;52.986;6.014;2022-08-11T13:50:40;2.67;;;1.90;;
56161;SDS011;42045;52.986;6.014;2022-08-11T13:53:28;3.90;;;1.90;;
56161;SDS011;42045;52.986;6.014;2022-08-11T13:56:00;3.58;;;1.88;;
56161;SDS011;42045;52.986;6.014;2022-08-11T14:00:53;2.53;;;2.05;;
56161;SDS011;42045;52.986;6.014;2022-08-11T14:03:22;2.25;;;2.00;;
56161;SDS011;42045;52.986;6.014;2022-08-11T14:05:50;3.15;;;2.10;;
56161;SDS011;42045;52.986;6.014;2022-08-11T14:08:25;2.90;;;1.90;;
56161;SDS011;42045;52.986;6.014;2022-08-11T14:10:58;5.07;;;2.00;;
56161;SDS011;42045;52.986;6.014;2022-08-11T14:13:45;6.07;;;2.33;;
56161;SDS011;42045;52.986;6.014;2022-08-11T14:16:34;4.75;;;2.20;;
56161;SDS011;42045;52.986;6.014;2022-08-11T14:19:06;2.42;;;1.90;;
56161;SDS011;42045;52.986;6.014;2022-08-11T14:21:37;4.32;;;2.00;;
56161;SDS011;42045;52.986;6.014;2022-08-11T14:24:43;3.17;;;1.83;;
56161;SDS011;42045;52.986;6.014;2022-08-11T14:27:25;4.88;;;1.95;;
56161;SDS011;42045;52.986;6.014;2022-08-11T14:29:55;3.17;;;1.90;;
56161;SDS011;42045;52.986;6.014;2022-08-11T14:32:25;3.55;;;1.90;;
56161;SDS011;42045;52.986;6.014;2022-08-11T14:35:04;3.97;;;2.00;;
56161;SDS011;42045;52.986;6.014;2022-08-11T14:37:30;4.93;;;2.00;;
56161;SDS011;42045;52.986;6.014;2022-08-11T14:39:57;2.20;;;1.80;;
56161;SDS011;42045;52.986;6.014;2022-08-11T14:42:24;3.33;;;2.10;;
56161;SDS011;42045;52.986;6.014;2022-08-11T14:45:10;3.30;;;1.83;;
56161;SDS011;42045;52.986;6.014;2022-08-11T14:47:58;4.75;;;2.20;;
56161;SDS011;42045;52.986;6.014;2022-08-11T14:50:28;7.07;;;2.00;;
56161;SDS011;42045;52.986;6.014;2022-08-11T14:53:07;6.25;;;2.00;;
56161;SDS011;42045;52.986;6.014;2022-08-11T14:55:37;4.50;;;2.10;;
56161;SDS011;42045;52.986;6.014;2022-08-11T14:58:25;2.88;;;1.75;;
56161;SDS011;42045;52.986;6.014;2022-08-11T15:00:54;2.83;;;1.95;;
56161;SDS011;42045;52.986;6.014;2022-08-11T15:03:23;3.88;;;2.08;;
56161;SDS011;42045;52.986;6.014;2022-08-11T15:05:51;3.42;;;1.92;;
56161;SDS011;42045;52.986;6.014;2022-08-11T15:08:20;2.22;;;1.80;;
56161;SDS011;42045;52.986;6.014;2022-08-11T15:11:09;3.80;;;1.85;;
56161;SDS011;42045;52.986;6.014;2022-08-11T15:13:56;3.47;;;1.80;;
56161;SDS011;42045;52.986;6.014;2022-08-11T15:16:24;2.83;;;1.80;;
56161;SDS011;42045;52.986;6.014;2022-08-11T15:19:10;2.10;;;1.60;;
56161;SDS011;42045;52.986;6.014;2022-08-11T15:21:37;3.88;;;1.90;;
56161;SDS011;42045;52.986;6.014;2022-08-11T15:24:22;6.55;;;1.83;;
56161;SDS011;42045;52.986;6.014;2022-08-11T15:26:49;6.30;;;2.22;;
56161;SDS011;42045;52.986;6.014;2022-08-11T15:29:36;3.20;;;1.77;;
56161;SDS011;42045;52.986;6.014;2022-08-11T15:32:22;4.20;;;2.17;;
56161;SDS011;42045;52.986;6.014;2022-08-11T15:35:08;5.32;;;2.40;;
56161;SDS011;42045;52.986;6.014;2022-08-11T15:37:55;5.25;;;2.17;;
56161;SDS011;42045;52.986;6.014;2022-08-11T15:40:26;2.92;;;2.00;;
56161;SDS011;42045;52.986;6.014;2022-08-11T15:43:21;3.70;;;2.10;;
56161;SDS011;42045;52.986;6.014;2022-08-11T15:49:00;4.05;;;2.45;;
56161;SDS011;42045;52.986;6.014;2022-08-11T15:51:48;3.72;;;2.20;;
56161;SDS011;42045;52.986;6.014;2022-08-11T15:54:22;2.28;;;1.95;;
56161;SDS011;42045;52.986;6.014;2022-08-11T15:56:53;3.90;;;2.20;;
56161;SDS011;42045;52.986;6.014;2022-08-11T15:59:27;3.05;;;2.33;;
56161;SDS011;42045;52.986;6.014;2022-08-11T16:02:15;3.65;;;1.95;;
56161;SDS011;42045;52.986;6.014;2022-08-11T16:05:01;5.70;;;2.10;;
56161;SDS011;42045;52.986;6.014;2022-08-11T16:07:31;2.33;;;1.80;;
56161;SDS011;42045;52.986;6.014;2022-08-11T16:10:06;5.90;;;2.03;;
56161;SDS011;42045;52.986;6.014;2022-08-11T16:12:50;6.32;;;2.35;;
56161;SDS011;42045;52.986;6.014;2022-08-11T16:15:38;4.05;;;2.65;;
56161;SDS011;42045;52.986;6.014;2022-08-11T16:18:29;4.50;;;1.80;;
56161;SDS011;42045;52.986;6.014;2022-08-11T16:21:09;4.68;;;2.15;;
56161;SDS011;42045;52.986;6.014;2022-08-11T16:23:42;3.78;;;1.73;;
56161;SDS011;42045;52.986;6.014;2022-08-11T16:26:10;5.40;;;2.15;;
56161;SDS011;42045;52.986;6.014;2022-08-11T16:28:43;6.93;;;2.38;;
56161;SDS011;42045;52.986;6.014;2022-08-11T16:31:10;9.02;;;2.10;;
56161;SDS011;42045;52.986;6.014;2022-08-11T16:33:38;5.28;;;2.13;;
56161;SDS011;42045;52.986;6.014;2022-08-11T16:36:09;3.70;;;2.40;;
56161;SDS011;42045;52.986;6.014;2022-08-11T16:38:56;8.48;;;3.08;;
56161;SDS011;42045;52.986;6.014;2022-08-11T16:41:29;4.65;;;2.03;;
56161;SDS011;42045;52.986;6.014;2022-08-11T16:44:18;6.50;;;2.15;;
56161;SDS011;42045;52.986;6.014;2022-08-11T16:47:12;4.47;;;2.42;;
56161;SDS011;42045;52.986;6.014;2022-08-11T16:49:42;3.65;;;2.15;;
56161;SDS011;42045;52.986;6.014;2022-08-11T16:52:16;4.78;;;2.08;;
56161;SDS011;42045;52.986;6.014;2022-08-11T16:54:43;6.00;;;2.10;;
56161;SDS011;42045;52.986;6.014;2022-08-11T16:57:15;2.65;;;2.03;;
56161;SDS011;42045;52.986;6.014;2022-08-11T17:00:08;8.85;;;2.47;;
56161;SDS011;42045;52.986;6.014;2022-08-11T17:02:39;3.00;;;1.88;;
56161;SDS011;42045;52.986;6.014;2022-08-11T17:05:29;4.22;;;2.08;;
56161;SDS011;42045;52.986;6.014;2022-08-11T17:08:25;4.95;;;2.38;;
56161;SDS011;42045;52.986;6.014;2022-08-11T17:11:18;5.30;;;2.13;;
56161;SDS011;42045;52.986;6.014;2022-08-11T17:14:09;4.13;;;2.20;;
56161;SDS011;42045;52.986;6.014;2022-08-11T17:16:39;3.67;;;2.17;;
56161;SDS011;42045;52.986;6.014;2022-08-11T17:19:16;5.28;;;2.42;;
56161;SDS011;42045;52.986;6.014;2022-08-11T17:21:49;4.55;;;2.17;;
56161;SDS011;42045;52.986;6.014;2022-08-11T17:24:53;4.60;;;2.22;;
56161;SDS011;42045;52.986;6.014;2022-08-11T17:27:24;9.18;;;2.40;;
56161;SDS011;42045;52.986;6.014;2022-08-11T17:29:55;4.97;;;2.20;;
56161;SDS011;42045;52.986;6.014;2022-08-11T17:32:31;7.30;;;2.42;;
56161;SDS011;42045;52.986;6.014;2022-08-11T17:35:19;4.30;;;2.05;;
56161;SDS011;42045;52.986;6.014;2022-08-11T17:38:14;4.53;;;2.13;;
56161;SDS011;42045;52.986;6.014;2022-08-11T17:40:47;6.95;;;2.47;;
56161;SDS011;42045;52.986;6.014;2022-08-11T17:43:35;6.20;;;2.38;;
56161;SDS011;42045;52.986;6.014;2022-08-11T17:46:21;6.47;;;2.70;;
56161;SDS011;42045;52.986;6.014;2022-08-11T17:49:20;3.92;;;2.50;;
56161;SDS011;42045;52.986;6.014;2022-08-11T17:51:48;4.35;;;2.80;;
56161;SDS011;42045;52.986;6.014;2022-08-11T17:54:36;7.50;;;2.40;;
56161;SDS011;42045;52.986;6.014;2022-08-11T17:57:24;4.07;;;2.47;;
56161;SDS011;42045;52.986;6.014;2022-08-11T18:00:11;7.88;;;2.17;;
56161;SDS011;42045;52.986;6.014;2022-08-11T18:02:44;2.90;;;2.30;;
56161;SDS011;42045;52.986;6.014;2022-08-11T18:08:13;7.20;;;2.17;;
56161;SDS011;42045;52.986;6.014;2022-08-11T18:11:09;3.42;;;2.20;;
56161;SDS011;42045;52.986;6.014;2022-08-11T18:13:54;2.63;;;2.42;;
56161;SDS011;42045;52.986;6.014;2022-08-11T18:16:41;6.55;;;2.67;;
56161;SDS011;42045;52.986;6.014;2022-08-11T18:19:27;3.63;;;2.70;;
56161;SDS011;42045;52.986;6.014;2022-08-11T18:22:32;3.80;;;2.50;;
56161;SDS011;42045;52.986;6.014;2022-08-11T18:25:25;13.10;;;2.92;;
56161;SDS011;42045;52.986;6.014;2022-08-11T18:28:14;28.75;;;4.43;;
56161;SDS011;42045;52.986;6.014;2022-08-11T18:31:01;17.83;;;2.75;;
56161;SDS011;42045;52.986;6.014;2022-08-11T18:33:51;8.93;;;2.60;;
56161;SDS011;42045;52.986;6.014;2022-08-11T18:36:38;8.45;;;2.90;;
56161;SDS011;42045;52.986;6.014;2022-08-11T18:39:33;5.00;;;2.33;;
56161;SDS011;42045;52.986;6.014;2022-08-11T18:42:25;5.53;;;2.38;;
56161;SDS011;42045;52.986;6.014;2022-08-11T18:45:13;3.75;;;2.60;;
56161;SDS011;42045;52.986;6.014;2022-08-11T18:48:02;5.32;;;2.97;;
56161;SDS011;42045;52.986;6.014;2022-08-11T18:50:55;4.63;;;2.80;;
56161;SDS011;42045;52.986;6.014;2022-08-11T18:53:46;7.95;;;2.50;;
56161;SDS011;42045;52.986;6.014;2022-08-11T18:56:35;4.78;;;2.78;;
56161;SDS011;42045;52.986;6.014;2022-08-11T18:59:22;5.28;;;2.38;;
56161;SDS011;42045;52.986;6.014;2022-08-11T19:02:12;5.60;;;2.53;;
56161;SDS011;42045;52.986;6.014;2022-08-11T19:08:27;9.23;;;3.92;;
56161;SDS011;42045;52.986;6.014;2022-08-11T19:11:15;54.92;;;7.10;;
56161;SDS011;42045;52.986;6.014;2022-08-11T19:14:01;58.65;;;7.85;;
56161;SDS011;42045;52.986;6.014;2022-08-11T19:16:47;79.53;;;9.23;;
56161;SDS011;42045;52.986;6.014;2022-08-11T19:19:34;6.28;;;3.28;;
56161;SDS011;42045;52.986;6.014;2022-08-11T19:22:20;5.60;;;3.00;;
56161;SDS011;42045;52.986;6.014;2022-08-11T19:25:07;4.93;;;3.20;;
56161;SDS011;42045;52.986;6.014;2022-08-11T19:27:53;7.45;;;3.30;;
56161;SDS011;42045;52.986;6.014;2022-08-11T19:30:38;6.97;;;3.05;;
56161;SDS011;42045;52.986;6.014;2022-08-11T19:33:23;5.90;;;2.97;;
56161;SDS011;42045;52.986;6.014;2022-08-11T19:36:12;4.90;;;3.30;;
56161;SDS011;42045;52.986;6.014;2022-08-11T19:38:58;7.72;;;4.40;;
56161;SDS011;42045;52.986;6.014;2022-08-11T19:41:43;5.43;;;3.10;;
56161;SDS011;42045;52.986;6.014;2022-08-11T19:44:30;4.22;;;3.30;;
56161;SDS011;42045;52.986;6.014;2022-08-11T19:47:17;7.22;;;4.57;;
56161;SDS011;42045;52.986;6.014;2022-08-11T19:50:03;6.10;;;3.85;;
56161;SDS011;42045;52.986;6.014;2022-08-11T19:52:48;5.47;;;4.13;;